sensor_id;sensor_type;location;lat;lon;timestamp;pressure;altitude;pressure_sealevel;temperature;humidity
9059;BME280;4564;42.034;25.834;2022-07-29T00:01:07;100227.75;;;22.79;81.63
9059;BME280;4564;42.034;25.834;2022-07-29T00:03:33;100226.38;;;22.71;81.42
9059;BME280;4564;42.034;25.834;2022-07-29T00:06:00;100235.72;;;22.70;80.92
9059;BME280;4564;42.034;25.834;2022-07-29T00:08:27;100237.13;;;22.73;78.78
9059;BME280;4564;42.034;25.834;2022-07-29T00:10:55;100236.88;;;22.74;77.93
9059;BME280;4564;42.034;25.834;2022-07-29T00:13:21;100231.91;;;22.71;77.96
9059;BME280;4564;42.034;25.834;2022-07-29T00:15:48;100233.78;;;22.66;78.09
9059;BME280;4564;42.034;25.834;2022-07-29T00:18:15;100244.28;;;22.69;78.66
9059;BME280;4564;42.034;25.834;2022-07-29T00:20:41;100239.53;;;22.59;78.73
9059;BME280;4564;42.034;25.834;2022-07-29T00:23:08;100233.16;;;22.58;78.13
9059;BME280;4564;42.034;25.834;2022-07-29T00:25:35;100244.19;;;22.53;79.40
9059;BME280;4564;42.034;25.834;2022-07-29T00:28:03;100238.09;;;22.51;79.67
9059;BME280;4564;42.034;25.834;2022-07-29T00:30:30;100237.84;;;22.58;79.81
9059;BME280;4564;42.034;25.834;2022-07-29T00:32:58;100224.88;;;22.64;80.16
9059;BME280;4564;42.034;25.834;2022-07-29T00:35:25;100224.34;;;22.62;80.93
9059;BME280;4564;42.034;25.834;2022-07-29T00:38:09;100224.66;;;22.70;81.16
9059;BME280;4564;42.034;25.834;2022-07-29T00:40:35;100223.53;;;22.66;81.61
9059;BME280;4564;42.034;25.834;2022-07-29T00:43:03;100222.53;;;22.77;81.54
9059;BME280;4564;42.034;25.834;2022-07-29T00:45:30;100228.84;;;22.73;81.57
9059;BME280;4564;42.034;25.834;2022-07-29T00:47:57;100230.44;;;22.64;81.71
9059;BME280;4564;42.034;25.834;2022-07-29T00:50:23;100224.81;;;22.48;81.62
9059;BME280;4564;42.034;25.834;2022-07-29T00:52:50;100218.66;;;22.41;81.48
9059;BME280;4564;42.034;25.834;2022-07-29T00:55:18;100218.06;;;22.29;79.29
9059;BME280;4564;42.034;25.834;2022-07-29T00:57:45;100221.50;;;22.09;79.93
9059;BME280;4564;42.034;25.834;2022-07-29T01:00:14;100213.97;;;22.00;80.26
9059;BME280;4564;42.034;25.834;2022-07-29T01:02:42;100207.78;;;21.93;80.47
9059;BME280;4564;42.034;25.834;2022-07-29T01:05:09;100218.59;;;21.94;80.50
9059;BME280;4564;42.034;25.834;2022-07-29T01:07:37;100205.91;;;21.98;80.76
9059;BME280;4564;42.034;25.834;2022-07-29T01:10:05;100207.63;;;22.04;81.38
9059;BME280;4564;42.034;25.834;2022-07-29T01:12:32;100211.28;;;22.10;81.25
9059;BME280;4564;42.034;25.834;2022-07-29T01:15:00;100211.78;;;22.02;80.76
9059;BME280;4564;42.034;25.834;2022-07-29T01:17:31;100208.69;;;21.98;80.84
9059;BME280;4564;42.034;25.834;2022-07-29T01:20:00;100212.97;;;21.84;81.11
9059;BME280;4564;42.034;25.834;2022-07-29T01:22:35;100207.06;;;21.75;81.13
9059;BME280;4564;42.034;25.834;2022-07-29T01:25:11;100203.97;;;21.67;81.91
9059;BME280;4564;42.034;25.834;2022-07-29T01:27:41;100203.38;;;21.65;81.84
9059;BME280;4564;42.034;25.834;2022-07-29T01:30:12;100206.94;;;21.60;81.99
9059;BME280;4564;42.034;25.834;2022-07-29T01:32:39;100207.22;;;21.59;82.24
9059;BME280;4564;42.034;25.834;2022-07-29T01:35:09;100211.06;;;21.58;82.20
9059;BME280;4564;42.034;25.834;2022-07-29T01:37:38;100215.84;;;21.67;81.43
9059;BME280;4564;42.034;25.834;2022-07-29T01:40:07;100209.50;;;21.67;82.22
9059;BME280;4564;42.034;25.834;2022-07-29T01:42:39;100218.03;;;21.65;83.13
9059;BME280;4564;42.034;25.834;2022-07-29T01:45:08;100207.97;;;21.54;83.60
9059;BME280;4564;42.034;25.834;2022-07-29T01:47:39;100208.91;;;21.38;84.81
9059;BME280;4564;42.034;25.834;2022-07-29T01:50:07;100207.84;;;21.39;84.75
9059;BME280;4564;42.034;25.834;2022-07-29T01:52:38;100203.16;;;21.40;84.39
9059;BME280;4564;42.034;25.834;2022-07-29T01:55:09;100201.81;;;21.42;84.11
9059;BME280;4564;42.034;25.834;2022-07-29T01:57:38;100207.56;;;21.41;84.18
9059;BME280;4564;42.034;25.834;2022-07-29T02:00:07;100201.72;;;21.32;84.50
9059;BME280;4564;42.034;25.834;2022-07-29T02:02:34;100198.16;;;21.37;83.89
9059;BME280;4564;42.034;25.834;2022-07-29T02:05:03;100194.19;;;21.27;83.21
9059;BME280;4564;42.034;25.834;2022-07-29T02:07:32;100197.47;;;21.24;83.80
9059;BME280;4564;42.034;25.834;2022-07-29T02:09:59;100192.31;;;21.11;84.01
9059;BME280;4564;42.034;25.834;2022-07-29T02:12:26;100197.66;;;20.96;84.09
9059;BME280;4564;42.034;25.834;2022-07-29T02:14:54;100194.97;;;21.01;83.60
9059;BME280;4564;42.034;25.834;2022-07-29T02:17:24;100193.28;;;21.00;83.59
9059;BME280;4564;42.034;25.834;2022-07-29T02:19:52;100196.81;;;20.95;84.34
9059;BME280;4564;42.034;25.834;2022-07-29T02:22:22;100202.41;;;20.79;85.47
9059;BME280;4564;42.034;25.834;2022-07-29T02:24:50;100198.75;;;20.73;86.02
9059;BME280;4564;42.034;25.834;2022-07-29T02:27:17;100197.09;;;20.72;86.24
9059;BME280;4564;42.034;25.834;2022-07-29T02:29:45;100194.47;;;20.61;86.75
9059;BME280;4564;42.034;25.834;2022-07-29T02:32:13;100199.38;;;20.59;86.99
9059;BME280;4564;42.034;25.834;2022-07-29T02:34:40;100188.00;;;20.72;86.10
9059;BME280;4564;42.034;25.834;2022-07-29T02:37:08;100185.22;;;20.72;86.11
9059;BME280;4564;42.034;25.834;2022-07-29T02:39:36;100184.72;;;20.75;85.53
9059;BME280;4564;42.034;25.834;2022-07-29T02:42:05;100179.31;;;20.85;85.14
9059;BME280;4564;42.034;25.834;2022-07-29T02:44:33;100184.13;;;20.94;84.42
9059;BME280;4564;42.034;25.834;2022-07-29T02:47:02;100180.84;;;20.98;83.95
9059;BME280;4564;42.034;25.834;2022-07-29T02:49:32;100177.63;;;20.84;83.89
9059;BME280;4564;42.034;25.834;2022-07-29T02:52:02;100174.19;;;20.50;85.39
9059;BME280;4564;42.034;25.834;2022-07-29T02:54:31;100175.63;;;20.36;85.99
9059;BME280;4564;42.034;25.834;2022-07-29T02:57:03;100181.03;;;20.31;86.24
9059;BME280;4564;42.034;25.834;2022-07-29T02:59:32;100183.41;;;20.22;86.50
9059;BME280;4564;42.034;25.834;2022-07-29T03:02:00;100187.16;;;20.16;86.12
9059;BME280;4564;42.034;25.834;2022-07-29T03:04:28;100199.63;;;20.19;85.57
9059;BME280;4564;42.034;25.834;2022-07-29T03:06:58;100202.19;;;20.25;85.20
9059;BME280;4564;42.034;25.834;2022-07-29T03:09:25;100198.50;;;20.20;84.83
9059;BME280;4564;42.034;25.834;2022-07-29T03:11:54;100186.16;;;20.22;84.52
9059;BME280;4564;42.034;25.834;2022-07-29T03:14:22;100191.00;;;20.32;84.03
9059;BME280;4564;42.034;25.834;2022-07-29T03:16:49;100193.66;;;20.43;83.63
9059;BME280;4564;42.034;25.834;2022-07-29T03:19:17;100191.63;;;20.56;82.92
9059;BME280;4564;42.034;25.834;2022-07-29T03:21:43;100196.13;;;20.62;82.39
9059;BME280;4564;42.034;25.834;2022-07-29T03:24:22;100192.78;;;20.60;82.29
9059;BME280;4564;42.034;25.834;2022-07-29T03:26:50;100201.97;;;20.65;81.95
9059;BME280;4564;42.034;25.834;2022-07-29T03:29:16;100194.59;;;20.71;81.68
9059;BME280;4564;42.034;25.834;2022-07-29T03:31:44;100200.22;;;20.81;81.37
9059;BME280;4564;42.034;25.834;2022-07-29T03:34:11;100205.88;;;20.91;80.81
9059;BME280;4564;42.034;25.834;2022-07-29T03:36:37;100209.84;;;21.00;80.50
9059;BME280;4564;42.034;25.834;2022-07-29T03:39:04;100218.75;;;21.07;80.08
9059;BME280;4564;42.034;25.834;2022-07-29T03:41:34;100211.00;;;21.04;79.30
9059;BME280;4564;42.034;25.834;2022-07-29T03:44:01;100216.84;;;21.08;78.66
9059;BME280;4564;42.034;25.834;2022-07-29T03:46:28;100217.03;;;21.01;78.62
9059;BME280;4564;42.034;25.834;2022-07-29T03:48:58;100215.88;;;20.97;78.75
9059;BME280;4564;42.034;25.834;2022-07-29T03:51:26;100213.50;;;21.06;78.36
9059;BME280;4564;42.034;25.834;2022-07-29T03:53:53;100223.25;;;21.13;77.50
9059;BME280;4564;42.034;25.834;2022-07-29T03:56:20;100227.53;;;21.21;76.36
9059;BME280;4564;42.034;25.834;2022-07-29T03:58:47;100232.00;;;21.27;76.14
9059;BME280;4564;42.034;25.834;2022-07-29T04:01:14;100230.13;;;21.32;76.30
9059;BME280;4564;42.034;25.834;2022-07-29T04:03:42;100232.44;;;21.41;75.50
9059;BME280;4564;42.034;25.834;2022-07-29T04:06:12;100229.97;;;21.44;74.84
9059;BME280;4564;42.034;25.834;2022-07-29T04:08:38;100240.22;;;21.49;75.00
9059;BME280;4564;42.034;25.834;2022-07-29T04:11:05;100234.25;;;21.57;74.32
9059;BME280;4564;42.034;25.834;2022-07-29T04:13:32;100235.41;;;21.61;73.93
9059;BME280;4564;42.034;25.834;2022-07-29T04:15:58;100238.91;;;21.51;73.94
9059;BME280;4564;42.034;25.834;2022-07-29T04:18:25;100243.38;;;21.30;74.76
9059;BME280;4564;42.034;25.834;2022-07-29T04:20:52;100244.50;;;21.34;74.69
9059;BME280;4564;42.034;25.834;2022-07-29T04:23:20;100243.44;;;21.35;74.90
9059;BME280;4564;42.034;25.834;2022-07-29T04:25:47;100245.66;;;21.39;74.89
9059;BME280;4564;42.034;25.834;2022-07-29T04:28:13;100249.19;;;21.12;76.08
9059;BME280;4564;42.034;25.834;2022-07-29T04:30:40;100253.81;;;21.28;75.65
9059;BME280;4564;42.034;25.834;2022-07-29T04:33:07;100256.63;;;21.33;75.86
9059;BME280;4564;42.034;25.834;2022-07-29T04:35:35;100261.06;;;21.34;76.29
9059;BME280;4564;42.034;25.834;2022-07-29T04:38:01;100264.00;;;21.50;76.45
9059;BME280;4564;42.034;25.834;2022-07-29T04:40:30;100264.50;;;21.68;75.66
9059;BME280;4564;42.034;25.834;2022-07-29T04:42:58;100276.53;;;21.84;74.14
9059;BME280;4564;42.034;25.834;2022-07-29T04:45:25;100264.69;;;21.89;73.54
9059;BME280;4564;42.034;25.834;2022-07-29T04:47:51;100281.31;;;21.94;73.34
9059;BME280;4564;42.034;25.834;2022-07-29T04:50:18;100267.34;;;22.05;73.14
9059;BME280;4564;42.034;25.834;2022-07-29T04:52:45;100269.94;;;22.17;72.67
9059;BME280;4564;42.034;25.834;2022-07-29T04:55:11;100270.28;;;22.26;72.64
9059;BME280;4564;42.034;25.834;2022-07-29T04:57:39;100269.84;;;22.39;72.35
9059;BME280;4564;42.034;25.834;2022-07-29T05:00:07;100274.44;;;22.65;71.32
9059;BME280;4564;42.034;25.834;2022-07-29T05:02:34;100269.00;;;22.80;70.73
9059;BME280;4564;42.034;25.834;2022-07-29T05:05:01;100274.56;;;22.85;70.73
9059;BME280;4564;42.034;25.834;2022-07-29T05:07:27;100277.69;;;22.94;70.33
9059;BME280;4564;42.034;25.834;2022-07-29T05:09:54;100277.50;;;23.16;69.32
9059;BME280;4564;42.034;25.834;2022-07-29T05:12:22;100279.19;;;23.27;69.10
9059;BME280;4564;42.034;25.834;2022-07-29T05:14:50;100287.03;;;23.45;68.68
9059;BME280;4564;42.034;25.834;2022-07-29T05:17:17;100287.69;;;23.72;67.41
9059;BME280;4564;42.034;25.834;2022-07-29T05:19:44;100288.56;;;23.98;67.00
9059;BME280;4564;42.034;25.834;2022-07-29T05:22:10;100294.69;;;24.25;65.67
9059;BME280;4564;42.034;25.834;2022-07-29T05:24:37;100294.13;;;24.54;64.59
9059;BME280;4564;42.034;25.834;2022-07-29T05:27:04;100291.97;;;25.40;62.68
9059;BME280;4564;42.034;25.834;2022-07-29T05:29:30;100301.97;;;27.40;56.60
9059;BME280;4564;42.034;25.834;2022-07-29T05:31:58;100303.50;;;30.00;48.80
9059;BME280;4564;42.034;25.834;2022-07-29T05:34:25;100303.72;;;31.41;43.73
9059;BME280;4564;42.034;25.834;2022-07-29T05:36:52;100311.50;;;32.99;40.81
9059;BME280;4564;42.034;25.834;2022-07-29T05:39:18;100315.56;;;34.06;37.93
9059;BME280;4564;42.034;25.834;2022-07-29T05:41:45;100319.16;;;35.02;35.79
9059;BME280;4564;42.034;25.834;2022-07-29T05:44:12;100323.66;;;35.88;33.88
9059;BME280;4564;42.034;25.834;2022-07-29T05:46:39;100328.78;;;36.78;32.12
9059;BME280;4564;42.034;25.834;2022-07-29T05:49:07;100334.41;;;37.37;31.00
9059;BME280;4564;42.034;25.834;2022-07-29T05:51:34;100336.31;;;37.49;30.74
9059;BME280;4564;42.034;25.834;2022-07-29T05:54:01;100329.28;;;37.43;30.28
9059;BME280;4564;42.034;25.834;2022-07-29T05:56:27;100327.28;;;38.10;29.57
9059;BME280;4564;42.034;25.834;2022-07-29T05:58:54;100327.00;;;38.15;29.07
9059;BME280;4564;42.034;25.834;2022-07-29T06:01:21;100330.34;;;38.78;28.91
9059;BME280;4564;42.034;25.834;2022-07-29T06:03:47;100327.59;;;39.04;28.30
9059;BME280;4564;42.034;25.834;2022-07-29T06:06:15;100324.50;;;38.71;28.05
9059;BME280;4564;42.034;25.834;2022-07-29T06:08:42;100318.63;;;38.03;29.41
9059;BME280;4564;42.034;25.834;2022-07-29T06:11:08;100320.28;;;38.61;28.55
9059;BME280;4564;42.034;25.834;2022-07-29T06:13:35;100326.91;;;39.57;27.07
9059;BME280;4564;42.034;25.834;2022-07-29T06:16:02;100327.91;;;40.20;26.78
9059;BME280;4564;42.034;25.834;2022-07-29T06:18:29;100320.91;;;41.22;25.10
9059;BME280;4564;42.034;25.834;2022-07-29T06:20:56;100322.50;;;41.16;25.12
9059;BME280;4564;42.034;25.834;2022-07-29T06:23:24;100328.41;;;41.40;25.08
9059;BME280;4564;42.034;25.834;2022-07-29T06:25:51;100323.72;;;41.62;24.42
9059;BME280;4564;42.034;25.834;2022-07-29T06:28:18;100318.75;;;41.52;24.36
9059;BME280;4564;42.034;25.834;2022-07-29T06:30:44;100324.03;;;41.50;24.80
9059;BME280;4564;42.034;25.834;2022-07-29T06:33:15;100319.66;;;41.19;24.49
9059;BME280;4564;42.034;25.834;2022-07-29T06:35:42;100321.94;;;41.98;24.05
9059;BME280;4564;42.034;25.834;2022-07-29T06:38:10;100299.53;;;42.00;22.65
9059;BME280;4564;42.034;25.834;2022-07-29T06:40:41;100306.75;;;42.59;22.84
9059;BME280;4564;42.034;25.834;2022-07-29T06:43:27;100311.91;;;42.29;22.07
9059;BME280;4564;42.034;25.834;2022-07-29T06:45:56;100306.53;;;42.17;21.61
9059;BME280;4564;42.034;25.834;2022-07-29T06:48:23;100308.03;;;41.89;22.14
9059;BME280;4564;42.034;25.834;2022-07-29T06:50:50;100300.38;;;42.11;22.44
9059;BME280;4564;42.034;25.834;2022-07-29T06:53:16;100293.63;;;42.37;21.11
9059;BME280;4564;42.034;25.834;2022-07-29T06:55:44;100302.97;;;42.34;21.12
9059;BME280;4564;42.034;25.834;2022-07-29T06:58:11;100299.69;;;42.28;21.51
9059;BME280;4564;42.034;25.834;2022-07-29T07:00:39;100299.34;;;42.51;20.87
9059;BME280;4564;42.034;25.834;2022-07-29T07:03:06;100292.75;;;41.61;21.12
9059;BME280;4564;42.034;25.834;2022-07-29T07:05:32;100300.03;;;41.51;21.35
9059;BME280;4564;42.034;25.834;2022-07-29T07:07:59;100288.19;;;41.49;22.39
9059;BME280;4564;42.034;25.834;2022-07-29T07:10:26;100288.78;;;41.79;21.01
9059;BME280;4564;42.034;25.834;2022-07-29T07:12:54;100290.63;;;42.12;20.53
9059;BME280;4564;42.034;25.834;2022-07-29T07:15:21;100295.25;;;42.45;20.00
9059;BME280;4564;42.034;25.834;2022-07-29T07:17:47;100300.13;;;41.65;20.95
9059;BME280;4564;42.034;25.834;2022-07-29T07:20:14;100299.91;;;41.40;21.84
9059;BME280;4564;42.034;25.834;2022-07-29T07:22:41;100287.53;;;42.56;20.21
9059;BME280;4564;42.034;25.834;2022-07-29T07:25:08;100296.53;;;42.65;20.32
9059;BME280;4564;42.034;25.834;2022-07-29T07:27:35;100294.22;;;41.99;20.79
9059;BME280;4564;42.034;25.834;2022-07-29T07:30:04;100280.09;;;41.58;21.24
9059;BME280;4564;42.034;25.834;2022-07-29T07:32:31;100284.47;;;41.45;21.76
9059;BME280;4564;42.034;25.834;2022-07-29T07:34:58;100288.31;;;41.16;22.13
9059;BME280;4564;42.034;25.834;2022-07-29T07:37:25;100288.47;;;41.33;21.66
9059;BME280;4564;42.034;25.834;2022-07-29T07:39:51;100283.81;;;41.66;21.84
9059;BME280;4564;42.034;25.834;2022-07-29T07:42:18;100276.38;;;42.23;20.42
9059;BME280;4564;42.034;25.834;2022-07-29T07:44:45;100282.88;;;42.13;20.85
9059;BME280;4564;42.034;25.834;2022-07-29T07:47:14;100275.03;;;41.88;20.92
9059;BME280;4564;42.034;25.834;2022-07-29T07:49:44;100263.41;;;41.57;21.25
9059;BME280;4564;42.034;25.834;2022-07-29T07:52:11;100258.84;;;42.14;20.78
9059;BME280;4564;42.034;25.834;2022-07-29T07:54:38;100252.31;;;42.10;20.65
9059;BME280;4564;42.034;25.834;2022-07-29T07:57:04;100258.88;;;42.24;20.74
9059;BME280;4564;42.034;25.834;2022-07-29T07:59:31;100257.09;;;41.92;20.89
9059;BME280;4564;42.034;25.834;2022-07-29T08:01:58;100254.41;;;42.27;21.16
9059;BME280;4564;42.034;25.834;2022-07-29T08:04:27;100258.50;;;42.29;20.60
9059;BME280;4564;42.034;25.834;2022-07-29T08:06:54;100260.63;;;41.16;22.01
9059;BME280;4564;42.034;25.834;2022-07-29T08:09:21;100261.72;;;41.48;21.78
9059;BME280;4564;42.034;25.834;2022-07-29T08:11:48;100258.69;;;40.83;21.96
9059;BME280;4564;42.034;25.834;2022-07-29T08:14:14;100253.63;;;40.29;22.42
9059;BME280;4564;42.034;25.834;2022-07-29T08:16:41;100258.41;;;38.90;24.38
9059;BME280;4564;42.034;25.834;2022-07-29T08:19:08;100251.59;;;37.95;25.36
9059;BME280;4564;42.034;25.834;2022-07-29T08:21:36;100250.09;;;36.68;27.08
9059;BME280;4564;42.034;25.834;2022-07-29T08:24:03;100249.59;;;36.23;28.04
9059;BME280;4564;42.034;25.834;2022-07-29T08:26:47;100243.72;;;35.88;28.96
9059;BME280;4564;42.034;25.834;2022-07-29T08:29:14;100242.38;;;35.97;28.18
9059;BME280;4564;42.034;25.834;2022-07-29T08:31:41;100259.50;;;35.89;29.00
9059;BME280;4564;42.034;25.834;2022-07-29T08:34:08;100240.38;;;35.46;29.06
9059;BME280;4564;42.034;25.834;2022-07-29T08:36:37;100230.50;;;35.27;29.97
9059;BME280;4564;42.034;25.834;2022-07-29T08:39:04;100243.41;;;35.53;29.63
9059;BME280;4564;42.034;25.834;2022-07-29T08:41:31;100233.09;;;35.32;29.41
9059;BME280;4564;42.034;25.834;2022-07-29T08:43:57;100224.38;;;35.13;30.12
9059;BME280;4564;42.034;25.834;2022-07-29T08:46:24;100225.00;;;35.19;30.05
9059;BME280;4564;42.034;25.834;2022-07-29T08:48:51;100213.66;;;34.94;29.88
9059;BME280;4564;42.034;25.834;2022-07-29T08:51:18;100213.00;;;34.52;31.17
9059;BME280;4564;42.034;25.834;2022-07-29T08:53:47;100217.94;;;34.43;30.80
9059;BME280;4564;42.034;25.834;2022-07-29T08:56:15;100224.22;;;34.28;31.14
9059;BME280;4564;42.034;25.834;2022-07-29T08:58:43;100211.25;;;34.15;31.68
9059;BME280;4564;42.034;25.834;2022-07-29T09:01:10;100201.94;;;33.82;32.61
9059;BME280;4564;42.034;25.834;2022-07-29T09:03:38;100200.94;;;34.19;31.43
9059;BME280;4564;42.034;25.834;2022-07-29T09:06:05;100197.53;;;34.59;31.03
9059;BME280;4564;42.034;25.834;2022-07-29T09:08:32;100196.72;;;34.82;29.80
9059;BME280;4564;42.034;25.834;2022-07-29T09:11:01;100201.19;;;34.71;31.27
9059;BME280;4564;42.034;25.834;2022-07-29T09:13:28;100204.75;;;34.35;31.58
9059;BME280;4564;42.034;25.834;2022-07-29T09:15:55;100202.28;;;34.13;31.84
9059;BME280;4564;42.034;25.834;2022-07-29T09:18:32;100198.69;;;33.92;32.13
9059;BME280;4564;42.034;25.834;2022-07-29T09:20:59;100195.38;;;34.10;32.34
9059;BME280;4564;42.034;25.834;2022-07-29T09:23:59;100197.59;;;34.38;31.83
9059;BME280;4564;42.034;25.834;2022-07-29T09:26:29;100194.66;;;34.13;31.69
9059;BME280;4564;42.034;25.834;2022-07-29T09:28:56;100189.50;;;33.83;31.74
9059;BME280;4564;42.034;25.834;2022-07-29T09:31:26;100195.66;;;33.97;32.43
9059;BME280;4564;42.034;25.834;2022-07-29T09:33:58;100189.09;;;33.93;31.00
9059;BME280;4564;42.034;25.834;2022-07-29T09:36:25;100185.59;;;33.75;31.97
9059;BME280;4564;42.034;25.834;2022-07-29T09:38:56;100174.31;;;33.75;31.69
9059;BME280;4564;42.034;25.834;2022-07-29T09:41:23;100182.50;;;33.89;31.68
9059;BME280;4564;42.034;25.834;2022-07-29T09:43:55;100181.63;;;34.09;31.59
9059;BME280;4564;42.034;25.834;2022-07-29T09:46:22;100185.78;;;33.91;32.33
9059;BME280;4564;42.034;25.834;2022-07-29T09:49:05;100183.19;;;33.86;32.39
9059;BME280;4564;42.034;25.834;2022-07-29T09:51:32;100169.53;;;33.76;32.49
9059;BME280;4564;42.034;25.834;2022-07-29T09:53:58;100173.84;;;33.94;32.10
9059;BME280;4564;42.034;25.834;2022-07-29T09:56:38;100172.63;;;33.83;32.54
9059;BME280;4564;42.034;25.834;2022-07-29T09:59:07;100170.69;;;33.75;30.96
9059;BME280;4564;42.034;25.834;2022-07-29T10:01:34;100172.00;;;33.77;30.65
9059;BME280;4564;42.034;25.834;2022-07-29T10:04:01;100174.22;;;33.71;31.31
9059;BME280;4564;42.034;25.834;2022-07-29T10:06:28;100170.47;;;33.38;32.00
9059;BME280;4564;42.034;25.834;2022-07-29T10:08:54;100165.78;;;33.42;32.28
9059;BME280;4564;42.034;25.834;2022-07-29T10:11:21;100165.44;;;33.64;32.02
9059;BME280;4564;42.034;25.834;2022-07-29T10:13:48;100165.41;;;33.52;32.23
9059;BME280;4564;42.034;25.834;2022-07-29T10:16:16;100172.59;;;33.12;32.58
9059;BME280;4564;42.034;25.834;2022-07-29T10:18:43;100156.88;;;33.40;32.37
9059;BME280;4564;42.034;25.834;2022-07-29T10:21:10;100144.91;;;33.64;31.69
9059;BME280;4564;42.034;25.834;2022-07-29T10:23:37;100150.97;;;33.95;31.76
9059;BME280;4564;42.034;25.834;2022-07-29T10:26:05;100145.53;;;34.23;31.50
9059;BME280;4564;42.034;25.834;2022-07-29T10:28:32;100145.31;;;34.40;31.49
9059;BME280;4564;42.034;25.834;2022-07-29T10:31:00;100137.25;;;34.63;30.88
9059;BME280;4564;42.034;25.834;2022-07-29T10:33:33;100147.09;;;34.57;31.28
9059;BME280;4564;42.034;25.834;2022-07-29T10:36:10;100144.66;;;34.43;30.83
9059;BME280;4564;42.034;25.834;2022-07-29T10:38:43;100135.94;;;34.36;31.57
9059;BME280;4564;42.034;25.834;2022-07-29T10:43:54;100130.69;;;34.14;31.69
9059;BME280;4564;42.034;25.834;2022-07-29T10:46:21;100127.59;;;33.95;31.59
9059;BME280;4564;42.034;25.834;2022-07-29T10:49:06;100133.56;;;33.93;32.52
9059;BME280;4564;42.034;25.834;2022-07-29T10:54:43;100119.22;;;33.86;31.09
9059;BME280;4564;42.034;25.834;2022-07-29T10:57:15;100117.47;;;33.61;31.55
9059;BME280;4564;42.034;25.834;2022-07-29T10:59:43;100112.03;;;33.77;31.99
9059;BME280;4564;42.034;25.834;2022-07-29T11:05:00;100107.72;;;34.24;31.67
9059;BME280;4564;42.034;25.834;2022-07-29T11:07:28;100112.53;;;34.24;31.74
9059;BME280;4564;42.034;25.834;2022-07-29T11:12:47;100101.56;;;34.10;31.31
9059;BME280;4564;42.034;25.834;2022-07-29T11:15:14;100106.56;;;34.25;31.36
9059;BME280;4564;42.034;25.834;2022-07-29T11:20:40;100087.91;;;34.33;30.71
9059;BME280;4564;42.034;25.834;2022-07-29T11:23:17;100086.47;;;34.39;30.74
9059;BME280;4564;42.034;25.834;2022-07-29T11:29:08;100095.78;;;34.27;29.37
9059;BME280;4564;42.034;25.834;2022-07-29T11:31:41;100078.97;;;34.31;29.21
9059;BME280;4564;42.034;25.834;2022-07-29T11:34:18;100083.66;;;34.39;29.38
9059;BME280;4564;42.034;25.834;2022-07-29T11:39:32;100076.97;;;34.55;28.90
9059;BME280;4564;42.034;25.834;2022-07-29T11:42:14;100072.16;;;34.44;29.16
9059;BME280;4564;42.034;25.834;2022-07-29T11:45:02;100055.22;;;34.20;29.55
9059;BME280;4564;42.034;25.834;2022-07-29T11:47:31;100068.88;;;34.30;28.51
9059;BME280;4564;42.034;25.834;2022-07-29T11:49:58;100059.81;;;34.24;28.40
9059;BME280;4564;42.034;25.834;2022-07-29T11:52:30;100058.38;;;34.18;28.43
9059;BME280;4564;42.034;25.834;2022-07-29T11:55:00;100060.41;;;34.30;29.02
9059;BME280;4564;42.034;25.834;2022-07-29T11:57:28;100050.41;;;34.44;28.90
9059;BME280;4564;42.034;25.834;2022-07-29T11:59:55;100048.06;;;34.46;29.33
9059;BME280;4564;42.034;25.834;2022-07-29T12:02:24;100046.66;;;34.52;28.44
9059;BME280;4564;42.034;25.834;2022-07-29T12:04:51;100037.13;;;34.57;27.92
9059;BME280;4564;42.034;25.834;2022-07-29T12:07:18;100047.59;;;34.57;28.17
9059;BME280;4564;42.034;25.834;2022-07-29T12:09:49;100044.53;;;34.62;27.68
9059;BME280;4564;42.034;25.834;2022-07-29T12:12:17;100045.28;;;34.71;27.07
9059;BME280;4564;42.034;25.834;2022-07-29T12:14:44;100042.34;;;34.43;26.95
9059;BME280;4564;42.034;25.834;2022-07-29T12:17:24;100035.72;;;34.39;27.20
9059;BME280;4564;42.034;25.834;2022-07-29T12:19:52;100041.84;;;34.53;26.47
9059;BME280;4564;42.034;25.834;2022-07-29T12:22:24;100035.03;;;34.42;27.03
9059;BME280;4564;42.034;25.834;2022-07-29T12:24:51;100034.47;;;34.48;27.09
9059;BME280;4564;42.034;25.834;2022-07-29T12:27:19;100027.28;;;34.51;27.56
9059;BME280;4564;42.034;25.834;2022-07-29T12:29:54;100021.97;;;34.62;27.36
9059;BME280;4564;42.034;25.834;2022-07-29T12:32:21;100015.25;;;34.66;26.63
9059;BME280;4564;42.034;25.834;2022-07-29T12:34:48;100019.06;;;34.58;26.67
9059;BME280;4564;42.034;25.834;2022-07-29T12:37:15;100021.28;;;34.52;26.83
9059;BME280;4564;42.034;25.834;2022-07-29T12:39:42;100012.59;;;34.45;26.60
9059;BME280;4564;42.034;25.834;2022-07-29T12:42:12;100014.09;;;34.55;27.30
9059;BME280;4564;42.034;25.834;2022-07-29T12:44:47;100017.28;;;34.66;26.52
9059;BME280;4564;42.034;25.834;2022-07-29T12:47:14;100008.59;;;34.59;26.10
9059;BME280;4564;42.034;25.834;2022-07-29T12:53:12;100002.72;;;34.39;25.80
9059;BME280;4564;42.034;25.834;2022-07-29T12:55:40;100008.84;;;34.41;25.75
9059;BME280;4564;42.034;25.834;2022-07-29T12:58:06;99994.63;;;34.50;25.92
9059;BME280;4564;42.034;25.834;2022-07-29T13:00:35;99997.44;;;34.50;25.15
9059;BME280;4564;42.034;25.834;2022-07-29T13:03:01;100002.75;;;34.27;26.17
9059;BME280;4564;42.034;25.834;2022-07-29T13:05:40;99998.06;;;34.43;26.76
9059;BME280;4564;42.034;25.834;2022-07-29T13:08:11;99999.47;;;34.37;26.13
9059;BME280;4564;42.034;25.834;2022-07-29T13:10:38;99989.72;;;34.35;26.21
9059;BME280;4564;42.034;25.834;2022-07-29T13:13:05;99985.47;;;34.29;26.56
9059;BME280;4564;42.034;25.834;2022-07-29T13:25:06;99981.38;;;34.26;27.18
9059;BME280;4564;42.034;25.834;2022-07-29T13:27:34;99999.47;;;34.37;26.18
9059;BME280;4564;42.034;25.834;2022-07-29T13:30:02;99993.59;;;34.30;26.49
9059;BME280;4564;42.034;25.834;2022-07-29T13:32:29;99997.56;;;34.41;25.87
9059;BME280;4564;42.034;25.834;2022-07-29T13:34:56;99994.66;;;34.38;26.01
9059;BME280;4564;42.034;25.834;2022-07-29T13:37:23;99982.31;;;34.42;25.08
9059;BME280;4564;42.034;25.834;2022-07-29T13:39:51;99987.47;;;34.40;26.19